ěÝzenÝ letovÚho provozu ╚eskÚ republiky
Letiste: LKMT Aktualizace: 26.09.2022 16:34:32  UTC
 METAR LKMT 26.09. 16:30 RRA
METAR LKMT 261630Z 21007KT CAVOK 14/10 Q1005 NOSIG=
 TAF LKMT 26.09. 11:00 ...
TAF LKMT 261100Z 2612/2718 22006KT 9999 BKN030      TEMPO 2612/2618 23015KT 8000 SHRA SCT025TCU      PROB30 TEMPO 2612/2617 4000 TSRA SCT020CB      BECMG 2618/2620 21003KT CAVOK      BECMG 2623/2702 0500 FG OVC003      TEMPO 2703/2708 1500 BR BKN005      BECMG 2708/2710 6000 BKN025      TEMPO 2712/2718 3000 SHRA BKN006 SCT016TCU=